sensor_id;sensor_type;location;lat;lon;timestamp;temperature;humidity
774;DHT22;370;48.810;9.150;2023-05-10T00:01:40;14.60;71.10
774;DHT22;370;48.810;9.150;2023-05-10T00:04:07;14.50;70.00
774;DHT22;370;48.810;9.150;2023-05-10T00:06:35;14.50;69.50
774;DHT22;370;48.810;9.150;2023-05-10T00:09:02;14.40;69.50
774;DHT22;370;48.810;9.150;2023-05-10T00:11:29;14.30;67.20
774;DHT22;370;48.810;9.150;2023-05-10T00:13:55;14.20;68.20
774;DHT22;370;48.810;9.150;2023-05-10T00:16:22;14.10;67.50
774;DHT22;370;48.810;9.150;2023-05-10T00:18:49;14.00;65.10
774;DHT22;370;48.810;9.150;2023-05-10T00:21:16;14.00;63.30
774;DHT22;370;48.810;9.150;2023-05-10T00:23:44;13.80;63.60
774;DHT22;370;48.810;9.150;2023-05-10T00:26:10;13.80;63.80
774;DHT22;370;48.810;9.150;2023-05-10T00:28:37;13.70;63.80
774;DHT22;370;48.810;9.150;2023-05-10T00:31:04;13.60;63.60
774;DHT22;370;48.810;9.150;2023-05-10T00:33:31;13.60;66.10
774;DHT22;370;48.810;9.150;2023-05-10T00:35:57;13.60;63.60
774;DHT22;370;48.810;9.150;2023-05-10T00:38:24;13.50;63.50
774;DHT22;370;48.810;9.150;2023-05-10T00:40:52;13.40;65.00
774;DHT22;370;48.810;9.150;2023-05-10T00:43:19;13.40;63.40
774;DHT22;370;48.810;9.150;2023-05-10T00:45:46;13.40;63.40
774;DHT22;370;48.810;9.150;2023-05-10T00:48:13;13.30;63.30
774;DHT22;370;48.810;9.150;2023-05-10T00:50:40;13.30;65.50
774;DHT22;370;48.810;9.150;2023-05-10T00:53:07;13.20;66.00
774;DHT22;370;48.810;9.150;2023-05-10T00:55:34;13.20;67.50
774;DHT22;370;48.810;9.150;2023-05-10T00:58:03;13.20;66.50
774;DHT22;370;48.810;9.150;2023-05-10T01:00:30;13.20;65.70
774;DHT22;370;48.810;9.150;2023-05-10T01:02:57;13.20;66.30
774;DHT22;370;48.810;9.150;2023-05-10T01:05:24;13.20;65.00
774;DHT22;370;48.810;9.150;2023-05-10T01:07:52;13.10;65.80
774;DHT22;370;48.810;9.150;2023-05-10T01:10:19;13.10;66.60
774;DHT22;370;48.810;9.150;2023-05-10T01:12:46;13.20;67.50
774;DHT22;370;48.810;9.150;2023-05-10T01:15:15;13.20;66.20
774;DHT22;370;48.810;9.150;2023-05-10T01:17:43;13.20;66.20
774;DHT22;370;48.810;9.150;2023-05-10T01:20:11;13.20;64.80
774;DHT22;370;48.810;9.150;2023-05-10T01:23:10;13.10;63.60
774;DHT22;370;48.810;9.150;2023-05-10T01:26:05;13.20;64.20
774;DHT22;370;48.810;9.150;2023-05-10T01:29:05;13.10;64.70
774;DHT22;370;48.810;9.150;2023-05-10T01:34:35;13.00;66.00
774;DHT22;370;48.810;9.150;2023-05-10T01:37:07;13.00;67.10
774;DHT22;370;48.810;9.150;2023-05-10T01:39:40;13.10;66.60
774;DHT22;370;48.810;9.150;2023-05-10T01:42:11;13.10;65.20
774;DHT22;370;48.810;9.150;2023-05-10T01:44:45;13.10;64.80
774;DHT22;370;48.810;9.150;2023-05-10T01:47:17;13.00;64.00
774;DHT22;370;48.810;9.150;2023-05-10T01:49:49;13.10;65.00
774;DHT22;370;48.810;9.150;2023-05-10T01:52:19;13.10;64.20
774;DHT22;370;48.810;9.150;2023-05-10T01:54:51;13.10;63.20
774;DHT22;370;48.810;9.150;2023-05-10T01:57:22;13.00;63.10
774;DHT22;370;48.810;9.150;2023-05-10T01:59:52;13.00;63.10
774;DHT22;370;48.810;9.150;2023-05-10T02:02:22;13.00;64.50
774;DHT22;370;48.810;9.150;2023-05-10T02:04:50;13.00;63.40
774;DHT22;370;48.810;9.150;2023-05-10T02:07:18;12.90;63.50
774;DHT22;370;48.810;9.150;2023-05-10T02:09:46;12.90;65.00
774;DHT22;370;48.810;9.150;2023-05-10T02:12:15;12.90;64.00
774;DHT22;370;48.810;9.150;2023-05-10T02:14:42;12.90;64.60
774;DHT22;370;48.810;9.150;2023-05-10T02:17:11;13.00;64.00
774;DHT22;370;48.810;9.150;2023-05-10T02:19:41;12.90;64.00
774;DHT22;370;48.810;9.150;2023-05-10T02:22:10;12.90;65.20
774;DHT22;370;48.810;9.150;2023-05-10T02:24:38;12.80;65.40
774;DHT22;370;48.810;9.150;2023-05-10T02:27:06;12.70;64.60
774;DHT22;370;48.810;9.150;2023-05-10T02:29:33;12.80;66.50
774;DHT22;370;48.810;9.150;2023-05-10T02:32:01;12.80;65.70
774;DHT22;370;48.810;9.150;2023-05-10T02:34:30;12.80;66.50
774;DHT22;370;48.810;9.150;2023-05-10T02:36:59;12.80;67.30
774;DHT22;370;48.810;9.150;2023-05-10T02:39:29;12.80;66.90
774;DHT22;370;48.810;9.150;2023-05-10T02:41:57;12.80;68.20
774;DHT22;370;48.810;9.150;2023-05-10T02:44:27;12.80;69.20
774;DHT22;370;48.810;9.150;2023-05-10T02:46:56;12.80;69.80
774;DHT22;370;48.810;9.150;2023-05-10T02:49:24;12.80;69.40
774;DHT22;370;48.810;9.150;2023-05-10T02:51:56;12.80;69.70
774;DHT22;370;48.810;9.150;2023-05-10T02:54:30;12.90;69.80
774;DHT22;370;48.810;9.150;2023-05-10T02:57:00;12.80;68.60
774;DHT22;370;48.810;9.150;2023-05-10T02:59:28;12.90;69.80
774;DHT22;370;48.810;9.150;2023-05-10T03:01:55;12.90;69.30
774;DHT22;370;48.810;9.150;2023-05-10T03:04:21;13.00;68.60
774;DHT22;370;48.810;9.150;2023-05-10T03:06:48;13.00;67.60
774;DHT22;370;48.810;9.150;2023-05-10T03:09:15;13.00;67.70
774;DHT22;370;48.810;9.150;2023-05-10T03:12:02;13.00;66.10
774;DHT22;370;48.810;9.150;2023-05-10T03:14:42;13.00;65.40
774;DHT22;370;48.810;9.150;2023-05-10T03:17:17;13.00;66.80
774;DHT22;370;48.810;9.150;2023-05-10T03:19:49;13.00;68.40
774;DHT22;370;48.810;9.150;2023-05-10T03:22:23;13.10;67.80
774;DHT22;370;48.810;9.150;2023-05-10T03:24:53;13.20;64.50
774;DHT22;370;48.810;9.150;2023-05-10T03:27:22;13.20;63.30
774;DHT22;370;48.810;9.150;2023-05-10T03:29:51;13.20;62.30
774;DHT22;370;48.810;9.150;2023-05-10T03:32:19;13.20;61.10
774;DHT22;370;48.810;9.150;2023-05-10T03:34:45;13.20;62.40
774;DHT22;370;48.810;9.150;2023-05-10T03:37:12;13.30;60.80
774;DHT22;370;48.810;9.150;2023-05-10T03:39:39;13.30;60.40
774;DHT22;370;48.810;9.150;2023-05-10T03:42:06;13.30;59.50
774;DHT22;370;48.810;9.150;2023-05-10T03:44:34;13.30;59.40
774;DHT22;370;48.810;9.150;2023-05-10T03:47:00;13.20;56.80
774;DHT22;370;48.810;9.150;2023-05-10T03:49:27;13.30;59.00
774;DHT22;370;48.810;9.150;2023-05-10T03:51:54;13.30;56.70
774;DHT22;370;48.810;9.150;2023-05-10T03:54:21;13.30;56.90
774;DHT22;370;48.810;9.150;2023-05-10T03:56:48;13.30;57.00
774;DHT22;370;48.810;9.150;2023-05-10T03:59:14;13.20;55.70
774;DHT22;370;48.810;9.150;2023-05-10T04:01:43;13.20;56.40
774;DHT22;370;48.810;9.150;2023-05-10T04:04:10;13.20;57.00
774;DHT22;370;48.810;9.150;2023-05-10T04:06:37;13.20;58.60
774;DHT22;370;48.810;9.150;2023-05-10T04:09:04;13.30;57.70
774;DHT22;370;48.810;9.150;2023-05-10T04:11:31;13.30;55.60
774;DHT22;370;48.810;9.150;2023-05-10T04:13:58;13.30;55.30
774;DHT22;370;48.810;9.150;2023-05-10T04:16:25;13.30;55.50
774;DHT22;370;48.810;9.150;2023-05-10T04:18:53;13.30;57.00
774;DHT22;370;48.810;9.150;2023-05-10T04:21:20;13.40;57.30
774;DHT22;370;48.810;9.150;2023-05-10T04:23:47;13.40;57.10
774;DHT22;370;48.810;9.150;2023-05-10T04:26:14;13.40;53.90
774;DHT22;370;48.810;9.150;2023-05-10T04:28:41;13.50;54.40
774;DHT22;370;48.810;9.150;2023-05-10T04:31:09;13.50;54.70
774;DHT22;370;48.810;9.150;2023-05-10T04:33:36;13.60;53.80
774;DHT22;370;48.810;9.150;2023-05-10T04:36:05;13.50;56.70
774;DHT22;370;48.810;9.150;2023-05-10T04:38:32;13.60;56.00
774;DHT22;370;48.810;9.150;2023-05-10T04:41:06;13.60;53.80
774;DHT22;370;48.810;9.150;2023-05-10T04:43:33;13.60;52.80
774;DHT22;370;48.810;9.150;2023-05-10T04:46:00;13.70;52.80
774;DHT22;370;48.810;9.150;2023-05-10T04:48:27;13.70;51.20
774;DHT22;370;48.810;9.150;2023-05-10T04:50:54;13.80;52.20
774;DHT22;370;48.810;9.150;2023-05-10T04:53:22;13.90;53.20
774;DHT22;370;48.810;9.150;2023-05-10T04:55:49;14.00;50.70
774;DHT22;370;48.810;9.150;2023-05-10T04:58:15;14.10;49.50
774;DHT22;370;48.810;9.150;2023-05-10T05:00:42;13.90;52.30
774;DHT22;370;48.810;9.150;2023-05-10T05:03:09;14.10;54.20
774;DHT22;370;48.810;9.150;2023-05-10T05:05:36;14.20;52.00
774;DHT22;370;48.810;9.150;2023-05-10T05:08:03;14.30;50.30
774;DHT22;370;48.810;9.150;2023-05-10T05:10:31;14.30;50.60
774;DHT22;370;48.810;9.150;2023-05-10T05:12:58;14.40;49.10
774;DHT22;370;48.810;9.150;2023-05-10T05:15:25;14.60;48.90
774;DHT22;370;48.810;9.150;2023-05-10T05:17:56;14.70;46.20
774;DHT22;370;48.810;9.150;2023-05-10T05:20:22;14.90;45.00
774;DHT22;370;48.810;9.150;2023-05-10T05:22:49;14.90;45.00
774;DHT22;370;48.810;9.150;2023-05-10T05:25:19;15.10;41.80
774;DHT22;370;48.810;9.150;2023-05-10T05:27:47;15.20;40.00
774;DHT22;370;48.810;9.150;2023-05-10T05:30:14;15.40;36.50
774;DHT22;370;48.810;9.150;2023-05-10T05:32:41;15.40;33.00
774;DHT22;370;48.810;9.150;2023-05-10T05:35:08;15.60;27.70
774;DHT22;370;48.810;9.150;2023-05-10T05:37:35;15.60;29.10
774;DHT22;370;48.810;9.150;2023-05-10T05:40:02;15.70;30.80
774;DHT22;370;48.810;9.150;2023-05-10T05:42:31;15.80;29.60
774;DHT22;370;48.810;9.150;2023-05-10T05:44:59;15.90;27.40
774;DHT22;370;48.810;9.150;2023-05-10T05:47:26;16.00;27.50
774;DHT22;370;48.810;9.150;2023-05-10T05:49:52;15.90;26.30
774;DHT22;370;48.810;9.150;2023-05-10T05:52:19;16.00;26.40
774;DHT22;370;48.810;9.150;2023-05-10T05:54:46;16.10;25.60
774;DHT22;370;48.810;9.150;2023-05-10T05:57:13;15.90;28.20
774;DHT22;370;48.810;9.150;2023-05-10T05:59:40;15.80;28.50
774;DHT22;370;48.810;9.150;2023-05-10T06:02:10;15.80;26.20
774;DHT22;370;48.810;9.150;2023-05-10T06:04:37;15.70;29.60
774;DHT22;370;48.810;9.150;2023-05-10T06:07:04;15.70;28.60
774;DHT22;370;48.810;9.150;2023-05-10T06:09:31;15.90;28.00
774;DHT22;370;48.810;9.150;2023-05-10T06:11:58;16.00;24.10
774;DHT22;370;48.810;9.150;2023-05-10T06:14:25;16.10;25.90
774;DHT22;370;48.810;9.150;2023-05-10T06:16:52;16.30;25.20
774;DHT22;370;48.810;9.150;2023-05-10T06:19:20;16.40;23.50
774;DHT22;370;48.810;9.150;2023-05-10T06:21:47;16.50;25.10
774;DHT22;370;48.810;9.150;2023-05-10T06:24:13;16.70;20.60
774;DHT22;370;48.810;9.150;2023-05-10T06:26:40;16.70;20.60
774;DHT22;370;48.810;9.150;2023-05-10T06:29:07;16.60;19.40
774;DHT22;370;48.810;9.150;2023-05-10T06:31:33;16.60;18.30
774;DHT22;370;48.810;9.150;2023-05-10T06:34:00;16.60;18.80
774;DHT22;370;48.810;9.150;2023-05-10T06:36:28;16.50;20.40
774;DHT22;370;48.810;9.150;2023-05-10T06:38:55;16.60;18.30
774;DHT22;370;48.810;9.150;2023-05-10T06:41:22;16.60;18.30
774;DHT22;370;48.810;9.150;2023-05-10T06:43:49;16.60;18.70
774;DHT22;370;48.810;9.150;2023-05-10T06:46:16;16.60;20.20
774;DHT22;370;48.810;9.150;2023-05-10T06:48:42;16.60;18.30
774;DHT22;370;48.810;9.150;2023-05-10T06:51:10;16.70;16.80
774;DHT22;370;48.810;9.150;2023-05-10T06:53:38;16.60;17.00
774;DHT22;370;48.810;9.150;2023-05-10T06:56:05;16.60;18.80
774;DHT22;370;48.810;9.150;2023-05-10T06:58:31;16.50;20.60
774;DHT22;370;48.810;9.150;2023-05-10T07:01:02;16.50;18.20
774;DHT22;370;48.810;9.150;2023-05-10T07:03:29;16.60;17.20
774;DHT22;370;48.810;9.150;2023-05-10T07:06:00;16.80;18.40
774;DHT22;370;48.810;9.150;2023-05-10T07:08:28;16.80;16.10
774;DHT22;370;48.810;9.150;2023-05-10T07:11:00;17.10;11.60
774;DHT22;370;48.810;9.150;2023-05-10T07:13:28;17.40;10.10
774;DHT22;370;48.810;9.150;2023-05-10T07:15:55;17.50;12.50
774;DHT22;370;48.810;9.150;2023-05-10T07:18:22;17.60;9.30
774;DHT22;370;48.810;9.150;2023-05-10T07:20:49;17.90;8.90
774;DHT22;370;48.810;9.150;2023-05-10T07:23:16;18.30;6.60
774;DHT22;370;48.810;9.150;2023-05-10T07:25:45;18.30;6.30
774;DHT22;370;48.810;9.150;2023-05-10T07:28:13;18.30;6.20
774;DHT22;370;48.810;9.150;2023-05-10T07:30:40;18.50;7.70
774;DHT22;370;48.810;9.150;2023-05-10T07:33:07;18.90;7.20
774;DHT22;370;48.810;9.150;2023-05-10T07:35:34;19.20;5.10
774;DHT22;370;48.810;9.150;2023-05-10T07:38:01;19.10;5.50
774;DHT22;370;48.810;9.150;2023-05-10T07:40:28;19.30;4.20
774;DHT22;370;48.810;9.150;2023-05-10T07:42:56;19.60;2.50
774;DHT22;370;48.810;9.150;2023-05-10T07:45:24;19.80;1.00
774;DHT22;370;48.810;9.150;2023-05-10T07:47:50;19.90;1.00
774;DHT22;370;48.810;9.150;2023-05-10T07:50:17;20.00;1.00
774;DHT22;370;48.810;9.150;2023-05-10T07:52:44;20.00;1.00
774;DHT22;370;48.810;9.150;2023-05-10T07:55:11;20.00;1.00
774;DHT22;370;48.810;9.150;2023-05-10T07:57:38;20.20;1.00
774;DHT22;370;48.810;9.150;2023-05-10T08:00:06;20.30;1.00
774;DHT22;370;48.810;9.150;2023-05-10T08:02:35;20.30;1.00
774;DHT22;370;48.810;9.150;2023-05-10T08:05:02;20.10;1.00
774;DHT22;370;48.810;9.150;2023-05-10T08:07:30;20.20;1.00
774;DHT22;370;48.810;9.150;2023-05-10T08:09:57;20.00;1.00
774;DHT22;370;48.810;9.150;2023-05-10T08:12:24;19.80;1.00
774;DHT22;370;48.810;9.150;2023-05-10T08:14:51;19.70;1.00
774;DHT22;370;48.810;9.150;2023-05-10T08:17:17;19.70;1.00
774;DHT22;370;48.810;9.150;2023-05-10T08:19:45;19.40;1.00
774;DHT22;370;48.810;9.150;2023-05-10T08:22:12;19.50;1.00
774;DHT22;370;48.810;9.150;2023-05-10T08:28:01;19.40;1.00
774;DHT22;370;48.810;9.150;2023-05-10T08:30:28;19.30;1.00
774;DHT22;370;48.810;9.150;2023-05-10T08:32:55;19.20;1.00
774;DHT22;370;48.810;9.150;2023-05-10T08:35:23;19.30;1.00
774;DHT22;370;48.810;9.150;2023-05-10T08:37:50;19.30;1.00
774;DHT22;370;48.810;9.150;2023-05-10T08:40:19;19.20;1.00
774;DHT22;370;48.810;9.150;2023-05-10T08:43:04;19.30;1.00
774;DHT22;370;48.810;9.150;2023-05-10T08:45:33;19.20;1.00
774;DHT22;370;48.810;9.150;2023-05-10T08:48:02;19.50;1.00
774;DHT22;370;48.810;9.150;2023-05-10T08:50:31;19.60;1.00
774;DHT22;370;48.810;9.150;2023-05-10T08:53:00;19.90;1.00
774;DHT22;370;48.810;9.150;2023-05-10T08:55:30;20.10;1.00
774;DHT22;370;48.810;9.150;2023-05-10T08:57:59;20.30;1.00
774;DHT22;370;48.810;9.150;2023-05-10T09:00:27;20.30;1.00
774;DHT22;370;48.810;9.150;2023-05-10T09:02:54;20.30;1.00
774;DHT22;370;48.810;9.150;2023-05-10T09:05:21;20.50;1.00
774;DHT22;370;48.810;9.150;2023-05-10T09:07:49;20.30;1.00
774;DHT22;370;48.810;9.150;2023-05-10T09:10:16;20.20;1.00
774;DHT22;370;48.810;9.150;2023-05-10T09:12:44;20.10;1.00
774;DHT22;370;48.810;9.150;2023-05-10T09:15:11;20.40;1.00
774;DHT22;370;48.810;9.150;2023-05-10T09:17:40;20.60;1.00
774;DHT22;370;48.810;9.150;2023-05-10T09:20:07;20.70;1.00
774;DHT22;370;48.810;9.150;2023-05-10T09:22:34;20.90;1.00
774;DHT22;370;48.810;9.150;2023-05-10T09:25:07;20.90;1.00
774;DHT22;370;48.810;9.150;2023-05-10T09:27:35;21.10;1.00
774;DHT22;370;48.810;9.150;2023-05-10T09:30:02;21.30;1.00
774;DHT22;370;48.810;9.150;2023-05-10T09:32:39;21.30;1.00
774;DHT22;370;48.810;9.150;2023-05-10T09:35:07;21.20;1.00
774;DHT22;370;48.810;9.150;2023-05-10T09:37:34;21.30;1.00
774;DHT22;370;48.810;9.150;2023-05-10T09:40:06;21.40;1.00
774;DHT22;370;48.810;9.150;2023-05-10T09:42:33;21.80;1.00
774;DHT22;370;48.810;9.150;2023-05-10T09:45:02;22.30;1.00
774;DHT22;370;48.810;9.150;2023-05-10T09:47:31;22.50;1.00
774;DHT22;370;48.810;9.150;2023-05-10T09:49:58;22.50;1.00
774;DHT22;370;48.810;9.150;2023-05-10T09:52:29;23.00;1.00
774;DHT22;370;48.810;9.150;2023-05-10T09:54:56;23.30;1.00
774;DHT22;370;48.810;9.150;2023-05-10T09:57:25;23.60;1.00
774;DHT22;370;48.810;9.150;2023-05-10T09:59:52;23.70;1.00
774;DHT22;370;48.810;9.150;2023-05-10T10:02:20;23.70;1.00
774;DHT22;370;48.810;9.150;2023-05-10T10:04:49;23.70;1.00
774;DHT22;370;48.810;9.150;2023-05-10T10:07:22;24.10;1.00
774;DHT22;370;48.810;9.150;2023-05-10T10:09:51;24.00;1.00
774;DHT22;370;48.810;9.150;2023-05-10T10:12:18;23.40;1.00
774;DHT22;370;48.810;9.150;2023-05-10T10:14:47;22.50;1.00
774;DHT22;370;48.810;9.150;2023-05-10T10:17:15;21.80;1.00
774;DHT22;370;48.810;9.150;2023-05-10T10:19:42;21.70;1.00
774;DHT22;370;48.810;9.150;2023-05-10T10:22:09;21.60;1.00
774;DHT22;370;48.810;9.150;2023-05-10T10:24:37;21.60;1.00
774;DHT22;370;48.810;9.150;2023-05-10T10:27:13;22.10;1.00
774;DHT22;370;48.810;9.150;2023-05-10T10:29:52;22.80;1.00
774;DHT22;370;48.810;9.150;2023-05-10T10:32:34;23.20;1.00
774;DHT22;370;48.810;9.150;2023-05-10T10:35:02;23.20;1.00
774;DHT22;370;48.810;9.150;2023-05-10T10:37:44;23.50;1.00
774;DHT22;370;48.810;9.150;2023-05-10T10:40:25;23.00;1.00
774;DHT22;370;48.810;9.150;2023-05-10T10:42:52;23.10;1.00
774;DHT22;370;48.810;9.150;2023-05-10T10:45:23;23.10;1.00
774;DHT22;370;48.810;9.150;2023-05-10T10:50:46;23.90;1.00
774;DHT22;370;48.810;9.150;2023-05-10T10:53:18;23.80;1.00
774;DHT22;370;48.810;9.150;2023-05-10T10:56:06;23.50;1.00
774;DHT22;370;48.810;9.150;2023-05-10T10:58:35;23.00;1.00
774;DHT22;370;48.810;9.150;2023-05-10T11:01:12;23.70;1.00
774;DHT22;370;48.810;9.150;2023-05-10T11:03:38;24.60;1.00
774;DHT22;370;48.810;9.150;2023-05-10T11:06:06;24.70;1.00
774;DHT22;370;48.810;9.150;2023-05-10T11:08:34;24.20;1.00
774;DHT22;370;48.810;9.150;2023-05-10T11:11:07;23.60;1.00
774;DHT22;370;48.810;9.150;2023-05-10T11:13:43;22.50;1.00
774;DHT22;370;48.810;9.150;2023-05-10T11:16:17;21.60;1.00
774;DHT22;370;48.810;9.150;2023-05-10T11:19:01;21.00;1.00
774;DHT22;370;48.810;9.150;2023-05-10T11:21:32;20.60;1.00
774;DHT22;370;48.810;9.150;2023-05-10T11:24:01;20.10;1.00
774;DHT22;370;48.810;9.150;2023-05-10T11:26:32;19.80;1.00
774;DHT22;370;48.810;9.150;2023-05-10T11:29:00;19.90;1.00
774;DHT22;370;48.810;9.150;2023-05-10T11:31:29;19.90;1.00
774;DHT22;370;48.810;9.150;2023-05-10T11:33:57;20.60;1.00
774;DHT22;370;48.810;9.150;2023-05-10T11:36:27;21.40;1.00
774;DHT22;370;48.810;9.150;2023-05-10T11:38:57;21.70;1.00
774;DHT22;370;48.810;9.150;2023-05-10T11:41:24;21.90;1.00
774;DHT22;370;48.810;9.150;2023-05-10T11:43:53;22.10;1.00
774;DHT22;370;48.810;9.150;2023-05-10T11:46:22;22.00;1.00
774;DHT22;370;48.810;9.150;2023-05-10T11:48:53;21.40;1.00
774;DHT22;370;48.810;9.150;2023-05-10T11:51:22;20.70;1.00
774;DHT22;370;48.810;9.150;2023-05-10T11:53:52;20.40;1.00
774;DHT22;370;48.810;9.150;2023-05-10T11:56:22;20.10;1.00
774;DHT22;370;48.810;9.150;2023-05-10T12:01:26;19.90;1.00
774;DHT22;370;48.810;9.150;2023-05-10T12:03:56;19.60;1.00
774;DHT22;370;48.810;9.150;2023-05-10T12:06:26;19.00;1.00
774;DHT22;370;48.810;9.150;2023-05-10T12:08:54;18.80;1.00
774;DHT22;370;48.810;9.150;2023-05-10T12:11:24;18.90;1.00
774;DHT22;370;48.810;9.150;2023-05-10T12:13:54;19.00;1.00
774;DHT22;370;48.810;9.150;2023-05-10T12:16:22;19.40;1.00
774;DHT22;370;48.810;9.150;2023-05-10T12:18:50;19.90;1.00
774;DHT22;370;48.810;9.150;2023-05-10T12:21:19;20.50;1.00
774;DHT22;370;48.810;9.150;2023-05-10T12:23:51;20.80;1.00
774;DHT22;370;48.810;9.150;2023-05-10T12:26:21;21.30;1.00
774;DHT22;370;48.810;9.150;2023-05-10T12:28:48;21.70;1.00
774;DHT22;370;48.810;9.150;2023-05-10T12:31:15;21.80;1.00
774;DHT22;370;48.810;9.150;2023-05-10T12:33:43;21.90;1.00
774;DHT22;370;48.810;9.150;2023-05-10T12:36:11;21.90;1.00
774;DHT22;370;48.810;9.150;2023-05-10T12:38:41;21.80;1.00
774;DHT22;370;48.810;9.150;2023-05-10T12:41:10;21.60;1.00
774;DHT22;370;48.810;9.150;2023-05-10T12:43:37;21.70;1.00
774;DHT22;370;48.810;9.150;2023-05-10T12:46:05;21.60;1.00
774;DHT22;370;48.810;9.150;2023-05-10T12:48:32;21.70;1.00
774;DHT22;370;48.810;9.150;2023-05-10T12:51:00;21.70;1.00
774;DHT22;370;48.810;9.150;2023-05-10T12:53:27;21.70;1.00
774;DHT22;370;48.810;9.150;2023-05-10T12:55:55;21.50;1.00
774;DHT22;370;48.810;9.150;2023-05-10T12:58:22;21.60;1.00
774;DHT22;370;48.810;9.150;2023-05-10T13:00:48;21.50;1.00
774;DHT22;370;48.810;9.150;2023-05-10T13:03:17;21.20;1.00
774;DHT22;370;48.810;9.150;2023-05-10T13:05:43;20.70;1.00
774;DHT22;370;48.810;9.150;2023-05-10T13:08:10;20.30;1.00
774;DHT22;370;48.810;9.150;2023-05-10T13:10:37;20.00;1.00
774;DHT22;370;48.810;9.150;2023-05-10T13:13:05;19.60;1.00
774;DHT22;370;48.810;9.150;2023-05-10T13:15:33;19.50;1.00
774;DHT22;370;48.810;9.150;2023-05-10T13:18:02;19.20;1.00
774;DHT22;370;48.810;9.150;2023-05-10T13:20:29;19.00;1.00
774;DHT22;370;48.810;9.150;2023-05-10T13:22:57;18.80;1.00
774;DHT22;370;48.810;9.150;2023-05-10T13:25:28;18.70;1.00
774;DHT22;370;48.810;9.150;2023-05-10T13:27:55;18.80;1.00
774;DHT22;370;48.810;9.150;2023-05-10T13:30:23;19.00;1.00
774;DHT22;370;48.810;9.150;2023-05-10T13:32:50;19.20;1.00
774;DHT22;370;48.810;9.150;2023-05-10T13:35:17;19.20;1.00
774;DHT22;370;48.810;9.150;2023-05-10T13:37:44;19.40;1.00
774;DHT22;370;48.810;9.150;2023-05-10T13:40:11;19.50;1.00
774;DHT22;370;48.810;9.150;2023-05-10T13:42:50;19.60;1.00
774;DHT22;370;48.810;9.150;2023-05-10T13:45:18;19.70;1.00
774;DHT22;370;48.810;9.150;2023-05-10T13:47:46;19.80;1.00
774;DHT22;370;48.810;9.150;2023-05-10T13:50:13;20.00;1.00
774;DHT22;370;48.810;9.150;2023-05-10T13:52:39;20.00;1.00
774;DHT22;370;48.810;9.150;2023-05-10T13:55:07;19.80;1.00
774;DHT22;370;48.810;9.150;2023-05-10T13:57:34;19.70;1.00
774;DHT22;370;48.810;9.150;2023-05-10T14:00:01;19.60;1.00
774;DHT22;370;48.810;9.150;2023-05-10T14:02:28;19.50;1.00
774;DHT22;370;48.810;9.150;2023-05-10T14:04:56;19.70;1.00
774;DHT22;370;48.810;9.150;2023-05-10T14:07:23;19.90;1.00
774;DHT22;370;48.810;9.150;2023-05-10T14:09:50;20.40;1.00
774;DHT22;370;48.810;9.150;2023-05-10T14:12:16;20.70;1.00
774;DHT22;370;48.810;9.150;2023-05-10T14:14:43;21.00;1.00
774;DHT22;370;48.810;9.150;2023-05-10T14:17:10;21.20;1.00
774;DHT22;370;48.810;9.150;2023-05-10T14:19:37;21.40;1.00
774;DHT22;370;48.810;9.150;2023-05-10T14:22:05;21.40;1.00
774;DHT22;370;48.810;9.150;2023-05-10T14:24:32;21.40;1.00
774;DHT22;370;48.810;9.150;2023-05-10T14:26:59;21.50;1.00
774;DHT22;370;48.810;9.150;2023-05-10T14:29:26;21.40;1.00
774;DHT22;370;48.810;9.150;2023-05-10T14:31:53;21.40;1.00
774;DHT22;370;48.810;9.150;2023-05-10T14:34:20;21.30;1.00
774;DHT22;370;48.810;9.150;2023-05-10T14:36:47;21.20;1.00
774;DHT22;370;48.810;9.150;2023-05-10T14:39:15;21.30;1.00
774;DHT22;370;48.810;9.150;2023-05-10T14:41:42;21.20;1.00
774;DHT22;370;48.810;9.150;2023-05-10T14:44:10;21.10;1.00
774;DHT22;370;48.810;9.150;2023-05-10T14:46:37;20.90;1.00
774;DHT22;370;48.810;9.150;2023-05-10T14:49:03;20.90;1.00
774;DHT22;370;48.810;9.150;2023-05-10T14:51:30;20.80;1.00
774;DHT22;370;48.810;9.150;2023-05-10T14:53:57;20.90;1.00
774;DHT22;370;48.810;9.150;2023-05-10T14:56:25;20.90;1.00
774;DHT22;370;48.810;9.150;2023-05-10T14:58:53;20.90;1.00
774;DHT22;370;48.810;9.150;2023-05-10T15:01:20;20.70;1.00
774;DHT22;370;48.810;9.150;2023-05-10T15:03:47;20.60;1.00
774;DHT22;370;48.810;9.150;2023-05-10T15:06:14;20.90;1.00
774;DHT22;370;48.810;9.150;2023-05-10T15:08:41;21.10;1.00
774;DHT22;370;48.810;9.150;2023-05-10T15:11:08;21.20;1.00
774;DHT22;370;48.810;9.150;2023-05-10T15:13:36;21.20;1.00
774;DHT22;370;48.810;9.150;2023-05-10T15:16:03;21.40;1.00
774;DHT22;370;48.810;9.150;2023-05-10T15:18:30;21.50;1.00
774;DHT22;370;48.810;9.150;2023-05-10T15:20:57;21.50;1.00
774;DHT22;370;48.810;9.150;2023-05-10T15:23:24;21.50;1.00
774;DHT22;370;48.810;9.150;2023-05-10T15:25:51;21.50;1.00
774;DHT22;370;48.810;9.150;2023-05-10T15:28:20;21.50;1.00
774;DHT22;370;48.810;9.150;2023-05-10T15:30:49;21.30;1.00
774;DHT22;370;48.810;9.150;2023-05-10T15:33:15;21.10;1.00
774;DHT22;370;48.810;9.150;2023-05-10T15:35:43;21.00;1.00
774;DHT22;370;48.810;9.150;2023-05-10T15:38:10;21.10;1.00
774;DHT22;370;48.810;9.150;2023-05-10T15:40:37;21.10;1.00
774;DHT22;370;48.810;9.150;2023-05-10T15:43:03;21.10;1.00
774;DHT22;370;48.810;9.150;2023-05-10T15:45:31;20.90;1.00
774;DHT22;370;48.810;9.150;2023-05-10T15:47:59;20.90;1.00
774;DHT22;370;48.810;9.150;2023-05-10T15:50:26;20.80;1.00
774;DHT22;370;48.810;9.150;2023-05-10T15:52:53;20.70;1.00
774;DHT22;370;48.810;9.150;2023-05-10T15:55:20;20.70;1.00
774;DHT22;370;48.810;9.150;2023-05-10T15:57:46;20.80;1.00
774;DHT22;370;48.810;9.150;2023-05-10T16:00:14;21.00;1.00
774;DHT22;370;48.810;9.150;2023-05-10T16:02:41;20.90;1.00
774;DHT22;370;48.810;9.150;2023-05-10T16:05:09;20.90;1.00
774;DHT22;370;48.810;9.150;2023-05-10T16:07:36;20.70;1.00
774;DHT22;370;48.810;9.150;2023-05-10T16:10:05;20.50;1.00
774;DHT22;370;48.810;9.150;2023-05-10T16:12:32;20.40;1.00
774;DHT22;370;48.810;9.150;2023-05-10T16:15:00;20.10;1.00
774;DHT22;370;48.810;9.150;2023-05-10T16:17:27;20.00;1.00
774;DHT22;370;48.810;9.150;2023-05-10T16:19:54;19.80;1.00
774;DHT22;370;48.810;9.150;2023-05-10T16:22:22;19.80;1.00
774;DHT22;370;48.810;9.150;2023-05-10T16:24:51;19.80;1.00
774;DHT22;370;48.810;9.150;2023-05-10T16:27:18;19.80;1.00
774;DHT22;370;48.810;9.150;2023-05-10T16:29:46;19.80;1.00
774;DHT22;370;48.810;9.150;2023-05-10T16:32:17;19.60;1.00
774;DHT22;370;48.810;9.150;2023-05-10T16:34:44;19.60;1.00
774;DHT22;370;48.810;9.150;2023-05-10T16:37:10;19.70;1.00
774;DHT22;370;48.810;9.150;2023-05-10T16:39:39;19.60;1.00
774;DHT22;370;48.810;9.150;2023-05-10T16:42:05;19.40;1.00
774;DHT22;370;48.810;9.150;2023-05-10T16:44:33;19.30;1.00
774;DHT22;370;48.810;9.150;2023-05-10T16:47:01;19.30;1.00
774;DHT22;370;48.810;9.150;2023-05-10T16:49:28;19.10;1.00
774;DHT22;370;48.810;9.150;2023-05-10T16:51:55;18.80;1.00
774;DHT22;370;48.810;9.150;2023-05-10T16:54:22;18.70;1.00
774;DHT22;370;48.810;9.150;2023-05-10T16:56:51;18.50;1.00
774;DHT22;370;48.810;9.150;2023-05-10T16:59:17;18.40;1.00
774;DHT22;370;48.810;9.150;2023-05-10T17:01:44;18.30;1.00
774;DHT22;370;48.810;9.150;2023-05-10T17:04:11;18.20;1.00